Time;durP1;ratioP1;P1;durP2;ratioP2;P2;SDS_P1;SDS_P2;PMS_P1;PMS_P2;Temp;Humidity;BMP_temperature;BMP_pressure;BME280_temperature;BME280_humidity;BME280_pressure;Samples;Min_cycle;Max_cycle;Signal;HPM_P1;HPM_P2
2022/06/16 00:01:55;;;;;;;;;;;20.80;50.70;;;;;;5020007;28;19940;-69
2022/06/16 00:04:23;;;;;;;;;;;20.70;50.70;;;;;;5019859;28;19913;-69
2022/06/16 00:06:49;;;;;;;;;;;20.70;50.80;;;;;;5019334;28;19917;-68
2022/06/16 00:09:14;;;;;;;;;;;20.60;50.80;;;;;;5023757;28;20449;-69
2022/06/16 00:11:40;;;;;;;;;;;20.60;50.90;;;;;;5016701;28;20426;-69
2022/06/16 00:14:06;;;;;;;;;;;20.60;51.00;;;;;;5020658;28;20347;-69
2022/06/16 00:16:32;;;;;;;;;;;20.50;51.00;;;;;;5026560;28;20273;-69
2022/06/16 00:18:57;;;;;;;;;;;20.50;51.00;;;;;;5025279;28;19917;-69
2022/06/16 00:21:23;;;;;;;;;;;20.50;51.10;;;;;;5019739;28;20288;-69
2022/06/16 00:23:48;;;;;;;;;;;20.50;51.20;;;;;;5017338;28;19917;-68
2022/06/16 00:26:21;;;;;;;;;;;20.40;51.00;;;;;;5020282;28;20399;-69
2022/06/16 00:28:47;;;;;;;;;;;20.40;51.00;;;;;;5019868;28;20297;-69
2022/06/16 00:31:13;;;;;;;;;;;20.30;51.20;;;;;;5034789;28;19928;-69
2022/06/16 00:33:39;;;;;;;;;;;20.30;51.50;;;;;;5020083;28;20019;-69
2022/06/16 00:36:05;;;;;;;;;;;20.30;51.60;;;;;;5019728;28;20047;-69
2022/06/16 00:38:31;;;;;;;;;;;20.30;51.60;;;;;;5019269;28;19913;-68
2022/06/16 00:40:56;;;;;;;;;;;20.20;51.60;;;;;;5019893;28;19971;-69
2022/06/16 00:43:22;;;;;;;;;;;20.20;51.60;;;;;;5020085;28;19960;-69
2022/06/16 00:45:48;;;;;;;;;;;20.20;51.80;;;;;;5019628;28;19917;-69
2022/06/16 00:48:18;;;;;;;;;;;20.20;52.00;;;;;;5017706;28;20016;-69
2022/06/16 00:50:46;;;;;;;;;;;20.10;51.90;;;;;;5019197;28;20820;-69
2022/06/16 00:53:11;;;;;;;;;;;20.10;51.70;;;;;;5018513;28;20347;-69
2022/06/16 00:55:37;;;;;;;;;;;20.10;51.90;;;;;;5017908;28;19925;-69
2022/06/16 00:58:03;;;;;;;;;;;20.10;52.70;;;;;;5019164;28;19948;-69
2022/06/16 01:02:56;;;;;;;;;;;20.00;52.20;;;;;;5017855;28;19918;-68
2022/06/16 01:05:23;;;;;;;;;;;20.00;52.30;;;;;;5019105;28;19921;-69
2022/06/16 01:07:49;;;;;;;;;;;20.00;52.40;;;;;;5015858;28;19971;-69
2022/06/16 01:10:15;;;;;;;;;;;20.00;52.50;;;;;;5013206;28;19921;-68
2022/06/16 01:15:30;;;;;;;;;;;20.00;52.40;;;;;;5014541;28;22253;-68
2022/06/16 01:18:02;;;;;;;;;;;20.00;52.40;;;;;;5013625;28;19913;-69
2022/06/16 01:20:38;;;;;;;;;;;20.00;52.50;;;;;;5014498;28;19917;-69
2022/06/16 01:23:12;;;;;;;;;;;19.90;52.50;;;;;;5013662;28;19970;-69
2022/06/16 01:25:58;;;;;;;;;;;19.90;52.50;;;;;;5013274;28;19921;-66
2022/06/16 01:28:50;;;;;;;;;;;19.80;52.40;;;;;;5012764;28;20357;-66
2022/06/16 01:31:25;;;;;;;;;;;19.70;52.50;;;;;;5018497;28;20368;-68
2022/06/16 01:33:50;;;;;;;;;;;19.70;52.40;;;;;;5016214;28;19967;-69
2022/06/16 01:36:18;;;;;;;;;;;19.60;52.50;;;;;;5012846;28;19925;-68
2022/06/16 01:38:50;;;;;;;;;;;19.60;52.70;;;;;;5013106;28;20373;-68
2022/06/16 01:41:23;;;;;;;;;;;19.60;53.00;;;;;;5026749;28;19913;-69
2022/06/16 01:43:52;;;;;;;;;;;19.50;52.80;;;;;;5013341;28;20035;-69
2022/06/16 01:46:29;;;;;;;;;;;19.50;52.90;;;;;;5014658;28;19949;-69
2022/06/16 01:48:59;;;;;;;;;;;19.40;53.00;;;;;;5012553;28;20099;-69
2022/06/16 01:51:30;;;;;;;;;;;19.30;53.00;;;;;;5017302;28;19917;-69
2022/06/16 01:53:58;;;;;;;;;;;19.30;53.10;;;;;;5018313;28;19917;-68
2022/06/16 01:56:33;;;;;;;;;;;19.20;53.10;;;;;;5011121;28;20167;-68
2022/06/16 01:59:04;;;;;;;;;;;19.20;53.20;;;;;;5013536;28;19922;-69
2022/06/16 02:01:33;;;;;;;;;;;19.10;53.40;;;;;;5013052;28;20448;-68
2022/06/16 02:04:02;;;;;;;;;;;19.10;53.40;;;;;;5014620;28;19945;-68
2022/06/16 02:06:29;;;;;;;;;;;19.10;53.50;;;;;;5013619;28;19927;-69
2022/06/16 02:08:59;;;;;;;;;;;19.10;53.50;;;;;;5015251;28;19954;-68
2022/06/16 02:11:29;;;;;;;;;;;19.10;53.70;;;;;;5015773;28;19971;-68
2022/06/16 02:14:02;;;;;;;;;;;19.00;53.60;;;;;;5019039;28;19917;-68
2022/06/16 02:16:29;;;;;;;;;;;19.00;54.40;;;;;;5017725;28;20012;-68
2022/06/16 02:18:56;;;;;;;;;;;19.00;53.90;;;;;;5016270;28;20208;-69
2022/06/16 02:21:23;;;;;;;;;;;19.00;54.20;;;;;;5014655;28;20004;-68
2022/06/16 02:23:49;;;;;;;;;;;19.00;53.90;;;;;;5014133;28;20444;-69
2022/06/16 02:26:15;;;;;;;;;;;19.00;54.00;;;;;;5012825;28;20023;-69
2022/06/16 02:28:42;;;;;;;;;;;19.00;54.30;;;;;;5015091;28;20350;-68
2022/06/16 02:31:12;;;;;;;;;;;19.00;54.10;;;;;;5012188;28;20281;-68
2022/06/16 02:33:46;;;;;;;;;;;19.00;54.10;;;;;;5011989;28;19918;-69
2022/06/16 02:36:11;;;;;;;;;;;19.00;54.40;;;;;;5013174;28;20384;-69
2022/06/16 02:38:56;;;;;;;;;;;19.00;54.30;;;;;;5013766;28;20528;-69
2022/06/16 02:41:41;;;;;;;;;;;19.00;54.20;;;;;;5011759;28;19913;-69
2022/06/16 02:44:19;;;;;;;;;;;19.00;54.20;;;;;;5012194;28;20430;-68
2022/06/16 02:46:47;;;;;;;;;;;19.00;54.20;;;;;;5010774;28;20339;-68
2022/06/16 02:49:16;;;;;;;;;;;19.00;54.10;;;;;;5009442;28;19917;-68
2022/06/16 02:52:00;;;;;;;;;;;19.00;54.20;;;;;;5011315;28;20368;-68
2022/06/16 02:54:34;;;;;;;;;;;19.00;54.10;;;;;;5013218;28;20321;-69
2022/06/16 02:57:06;;;;;;;;;;;18.90;54.20;;;;;;5011413;28;20471;-68
2022/06/16 02:59:38;;;;;;;;;;;19.00;55.00;;;;;;5013831;28;19913;-68
2022/06/16 03:02:08;;;;;;;;;;;18.90;54.90;;;;;;5010861;28;19948;-69
2022/06/16 03:04:35;;;;;;;;;;;18.90;54.60;;;;;;5011952;28;20572;-68
2022/06/16 03:07:01;;;;;;;;;;;18.90;54.40;;;;;;5012251;28;19932;-68
2022/06/16 03:09:26;;;;;;;;;;;18.80;54.50;;;;;;5014783;28;19917;-68
2022/06/16 03:11:52;;;;;;;;;;;18.80;55.80;;;;;;5008005;28;19921;-68
2022/06/16 03:14:19;;;;;;;;;;;18.80;55.30;;;;;;5011809;28;19921;-68
2022/06/16 03:16:45;;;;;;;;;;;18.70;54.80;;;;;;5013701;28;19927;-68
2022/06/16 03:19:11;;;;;;;;;;;18.80;54.90;;;;;;5011905;28;20008;-68
2022/06/16 03:21:36;;;;;;;;;;;18.70;55.10;;;;;;5011256;28;19921;-68
2022/06/16 03:24:02;;;;;;;;;;;18.80;55.00;;;;;;5015342;28;20003;-68
2022/06/16 03:26:27;;;;;;;;;;;18.80;55.00;;;;;;5011992;28;19917;-69
2022/06/16 03:28:53;;;;;;;;;;;18.70;55.00;;;;;;5013351;28;20392;-68
2022/06/16 03:31:18;;;;;;;;;;;18.70;55.00;;;;;;5012876;28;19949;-69
2022/06/16 03:33:44;;;;;;;;;;;18.70;55.00;;;;;;5013306;28;19913;-68
2022/06/16 03:36:10;;;;;;;;;;;18.70;55.80;;;;;;5014459;28;19925;-68
2022/06/16 03:38:42;;;;;;;;;;;18.60;55.00;;;;;;5012873;28;19949;-69
2022/06/16 03:41:08;;;;;;;;;;;18.60;55.20;;;;;;5010291;28;19917;-69
2022/06/16 03:43:34;;;;;;;;;;;18.60;55.20;;;;;;5011421;28;20407;-68
2022/06/16 03:45:59;;;;;;;;;;;18.60;55.40;;;;;;5013689;28;19914;-69
2022/06/16 03:48:25;;;;;;;;;;;18.60;55.70;;;;;;5012099;28;20380;-69
2022/06/16 03:50:50;;;;;;;;;;;18.60;55.60;;;;;;5007981;28;19914;-68
2022/06/16 03:53:16;;;;;;;;;;;18.50;55.60;;;;;;5014238;28;20291;-68
2022/06/16 03:55:42;;;;;;;;;;;18.60;55.60;;;;;;5010710;28;19917;-69
2022/06/16 03:58:08;;;;;;;;;;;18.60;55.60;;;;;;5016674;28;19925;-68
2022/06/16 04:00:33;;;;;;;;;;;18.60;55.70;;;;;;5011545;28;19928;-68
2022/06/16 04:05:43;;;;;;;;;;;18.60;55.90;;;;;;5011805;28;19963;-68
2022/06/16 04:08:09;;;;;;;;;;;18.70;56.40;;;;;;5012824;28;19925;-68
2022/06/16 04:10:35;;;;;;;;;;;18.70;56.30;;;;;;5012930;28;20292;-68
2022/06/16 04:13:00;;;;;;;;;;;18.70;57.80;;;;;;5012188;28;19967;-68
2022/06/16 04:15:26;;;;;;;;;;;18.70;57.60;;;;;;5013874;28;19922;-69
2022/06/16 04:17:51;;;;;;;;;;;18.70;58.30;;;;;;5011018;28;19940;-68
2022/06/16 04:20:17;;;;;;;;;;;18.70;57.30;;;;;;5009978;28;20137;-68
2022/06/16 04:22:42;;;;;;;;;;;18.70;57.80;;;;;;5007945;28;19957;-69
2022/06/16 04:25:12;;;;;;;;;;;18.70;57.20;;;;;;5016671;28;20226;-69
2022/06/16 04:27:38;;;;;;;;;;;18.80;57.40;;;;;;5010459;28;19913;-69
2022/06/16 04:30:04;;;;;;;;;;;18.80;57.40;;;;;;5011620;28;19917;-69
2022/06/16 04:32:30;;;;;;;;;;;18.90;57.10;;;;;;5009598;28;19971;-68
2022/06/16 04:34:55;;;;;;;;;;;18.90;56.90;;;;;;5011295;28;19921;-68
2022/06/16 04:37:21;;;;;;;;;;;19.00;57.00;;;;;;5010749;28;19913;-69
2022/06/16 04:39:46;;;;;;;;;;;19.10;57.00;;;;;;5013830;28;19917;-68
2022/06/16 04:42:12;;;;;;;;;;;19.20;57.00;;;;;;5013416;28;20336;-67
2022/06/16 04:44:39;;;;;;;;;;;19.30;57.20;;;;;;5015478;28;19959;-68
2022/06/16 04:47:06;;;;;;;;;;;19.30;58.20;;;;;;5014657;28;19917;-68
2022/06/16 04:49:31;;;;;;;;;;;19.40;57.60;;;;;;5014314;28;19914;-68
2022/06/16 04:51:57;;;;;;;;;;;19.50;57.40;;;;;;5010666;28;19921;-69
2022/06/16 04:54:23;;;;;;;;;;;19.50;57.70;;;;;;5015191;28;19916;-68
2022/06/16 04:56:48;;;;;;;;;;;19.60;57.80;;;;;;5012362;28;20347;-68
2022/06/16 04:59:14;;;;;;;;;;;19.60;57.80;;;;;;5013541;28;19918;-68
2022/06/16 05:01:40;;;;;;;;;;;19.60;58.70;;;;;;5016666;28;19979;-68
2022/06/16 05:04:05;;;;;;;;;;;19.70;58.50;;;;;;5013890;28;19917;-68
2022/06/16 05:06:31;;;;;;;;;;;19.70;57.50;;;;;;5013217;28;19925;-68
2022/06/16 05:08:56;;;;;;;;;;;19.80;57.30;;;;;;5014815;28;19925;-68
2022/06/16 05:11:22;;;;;;;;;;;19.90;57.10;;;;;;5013933;28;19917;-69
2022/06/16 05:13:47;;;;;;;;;;;19.90;58.00;;;;;;5011934;28;19937;-69
2022/06/16 05:16:13;;;;;;;;;;;20.00;57.50;;;;;;5015243;28;20388;-69
2022/06/16 05:18:38;;;;;;;;;;;20.10;57.40;;;;;;5013055;28;19921;-68
2022/06/16 05:21:04;;;;;;;;;;;20.10;57.10;;;;;;5016876;28;19935;-69
2022/06/16 05:23:29;;;;;;;;;;;20.20;57.00;;;;;;5015683;28;19917;-69
2022/06/16 05:25:55;;;;;;;;;;;20.30;56.90;;;;;;5017383;28;19914;-69
2022/06/16 05:28:20;;;;;;;;;;;20.40;56.90;;;;;;5016459;28;19917;-69
2022/06/16 05:30:46;;;;;;;;;;;20.40;57.00;;;;;;5012670;28;19997;-69
2022/06/16 05:33:11;;;;;;;;;;;20.50;56.90;;;;;;5014504;28;19936;-69
2022/06/16 05:35:37;;;;;;;;;;;20.60;57.00;;;;;;5012686;28;19965;-69
2022/06/16 05:38:02;;;;;;;;;;;20.70;56.90;;;;;;5013407;28;20315;-69
2022/06/16 05:40:28;;;;;;;;;;;20.80;57.00;;;;;;5015633;28;19949;-68
2022/06/16 05:42:54;;;;;;;;;;;20.90;57.00;;;;;;5015083;28;19913;-69
2022/06/16 05:45:19;;;;;;;;;;;20.90;57.80;;;;;;5016169;28;20027;-69
2022/06/16 05:47:45;;;;;;;;;;;21.00;57.30;;;;;;5016039;28;20319;-68
2022/06/16 05:50:13;;;;;;;;;;;21.10;57.80;;;;;;5015208;28;19917;-68
2022/06/16 05:52:38;;;;;;;;;;;21.20;58.10;;;;;;5012573;28;19970;-69
2022/06/16 05:55:04;;;;;;;;;;;21.30;57.90;;;;;;5016323;28;19925;-69
2022/06/16 05:57:30;;;;;;;;;;;21.40;58.20;;;;;;5016634;28;20269;-69
2022/06/16 05:59:55;;;;;;;;;;;21.50;58.00;;;;;;5012340;28;19917;-69
2022/06/16 06:02:20;;;;;;;;;;;21.60;57.60;;;;;;5012821;28;19924;-69
2022/06/16 06:04:48;;;;;;;;;;;21.70;58.00;;;;;;5013352;28;20076;-69
2022/06/16 06:07:13;;;;;;;;;;;21.70;57.60;;;;;;5019588;28;19917;-69
2022/06/16 06:18:10;;;;;;;;;;;22.10;57.00;;;;;;5014548;28;20304;-69
2022/06/16 06:20:36;;;;;;;;;;;22.20;56.80;;;;;;5019096;28;19917;-69
2022/06/16 06:23:01;;;;;;;;;;;22.20;56.10;;;;;;5010767;28;19917;-69
2022/06/16 06:25:27;;;;;;;;;;;22.30;55.40;;;;;;5013515;28;19959;-69
2022/06/16 06:27:52;;;;;;;;;;;22.40;55.60;;;;;;5008551;28;19916;-69
2022/06/16 06:30:20;;;;;;;;;;;22.50;56.10;;;;;;5010565;28;19917;-69
2022/06/16 06:32:45;;;;;;;;;;;22.60;56.40;;;;;;5006360;28;19921;-69
2022/06/16 06:35:11;;;;;;;;;;;22.70;56.10;;;;;;5016783;28;20296;-68
2022/06/16 06:37:37;;;;;;;;;;;22.80;55.10;;;;;;5014650;28;19964;-69
2022/06/16 06:40:02;;;;;;;;;;;22.90;56.00;;;;;;5016769;28;20003;-68
2022/06/16 06:42:28;;;;;;;;;;;23.00;57.00;;;;;;5010904;28;20424;-69
2022/06/16 06:44:53;;;;;;;;;;;23.10;57.50;;;;;;5014889;28;20199;-69
2022/06/16 06:47:26;;;;;;;;;;;23.20;57.00;;;;;;5012998;28;20410;-69
2022/06/16 06:49:52;;;;;;;;;;;23.40;57.00;;;;;;5008779;28;19948;-68
2022/06/16 06:52:18;;;;;;;;;;;23.50;57.90;;;;;;5015564;28;19956;-69
2022/06/16 06:54:45;;;;;;;;;;;23.60;59.80;;;;;;5012315;28;19921;-69
2022/06/16 06:57:20;;;;;;;;;;;23.70;62.60;;;;;;5013078;28;20380;-69
2022/06/16 06:59:46;;;;;;;;;;;23.80;60.50;;;;;;5013559;28;19913;-69
2022/06/16 07:02:13;;;;;;;;;;;23.80;59.00;;;;;;5011488;28;19932;-69
2022/06/16 07:04:39;;;;;;;;;;;23.90;58.70;;;;;;5012391;28;19913;-69
2022/06/16 07:07:06;;;;;;;;;;;23.90;58.00;;;;;;5011827;28;19924;-69
2022/06/16 07:09:31;;;;;;;;;;;23.90;57.90;;;;;;5012018;28;20099;-68
2022/06/16 07:11:56;;;;;;;;;;;23.90;58.00;;;;;;5007184;28;19929;-69
2022/06/16 07:14:22;;;;;;;;;;;24.00;57.50;;;;;;5010671;28;19913;-69
2022/06/16 07:16:49;;;;;;;;;;;24.00;56.70;;;;;;5010233;28;19931;-69
2022/06/16 07:19:15;;;;;;;;;;;24.00;56.50;;;;;;5012237;28;20066;-69
2022/06/16 07:21:40;;;;;;;;;;;24.00;57.10;;;;;;5010922;28;19913;-68
2022/06/16 07:24:06;;;;;;;;;;;24.10;57.00;;;;;;5013671;28;20407;-69
2022/06/16 07:26:32;;;;;;;;;;;24.10;56.80;;;;;;5014180;28;19921;-68
2022/06/16 07:29:00;;;;;;;;;;;24.20;56.80;;;;;;5011803;28;19917;-69
2022/06/16 07:31:26;;;;;;;;;;;24.20;56.60;;;;;;5012085;28;19917;-69
2022/06/16 07:33:51;;;;;;;;;;;24.30;56.30;;;;;;5009818;28;19913;-68
2022/06/16 07:36:17;;;;;;;;;;;24.40;56.80;;;;;;5012272;28;19917;-68
2022/06/16 07:38:42;;;;;;;;;;;24.60;56.30;;;;;;5010261;28;19920;-69
2022/06/16 07:41:50;;;;;;;;;;;24.60;56.00;;;;;;5012629;28;20007;-69
2022/06/16 07:43:57;;;;;;;;;;;24.70;55.60;;;;;;5009644;28;20542;-69
2022/06/16 07:46:23;;;;;;;;;;;24.80;55.70;;;;;;5011555;28;19921;-69
2022/06/16 07:48:49;;;;;;;;;;;24.80;55.50;;;;;;5013794;28;19917;-69
2022/06/16 07:51:14;;;;;;;;;;;24.90;56.10;;;;;;5012017;28;19913;-69
2022/06/16 07:53:40;;;;;;;;;;;25.00;55.80;;;;;;5011094;28;19913;-69
2022/06/16 07:56:05;;;;;;;;;;;25.00;55.90;;;;;;5011729;28;19917;-69
2022/06/16 07:58:32;;;;;;;;;;;25.10;55.70;;;;;;5010085;28;19921;-69
2022/06/16 08:00:58;;;;;;;;;;;25.30;55.60;;;;;;5011170;28;19913;-69
2022/06/16 08:03:27;;;;;;;;;;;25.40;56.00;;;;;;5006511;28;19956;-68
2022/06/16 08:05:57;;;;;;;;;;;25.40;56.00;;;;;;5012774;28;19944;-69
2022/06/16 08:08:23;;;;;;;;;;;25.60;56.70;;;;;;5013331;28;20300;-70
2022/06/16 08:10:53;;;;;;;;;;;25.70;56.40;;;;;;5012567;28;19921;-68
2022/06/16 08:13:19;;;;;;;;;;;25.80;56.90;;;;;;5016118;28;20467;-69
2022/06/16 08:15:46;;;;;;;;;;;26.00;56.50;;;;;;5017188;28;19920;-69
2022/06/16 08:18:13;;;;;;;;;;;26.10;56.20;;;;;;5019802;28;20300;-68
2022/06/16 08:20:39;;;;;;;;;;;26.20;55.90;;;;;;5014951;28;19917;-68
2022/06/16 08:23:04;;;;;;;;;;;26.30;55.60;;;;;;5016236;28;19949;-69
2022/06/16 08:25:30;;;;;;;;;;;26.50;56.00;;;;;;5021458;28;19912;-69
2022/06/16 08:27:56;;;;;;;;;;;26.60;55.20;;;;;;5021929;28;19918;-69
2022/06/16 08:30:23;;;;;;;;;;;26.70;55.20;;;;;;5019590;28;20388;-69
2022/06/16 08:32:49;;;;;;;;;;;26.90;55.00;;;;;;5018738;28;20426;-69
2022/06/16 08:35:15;;;;;;;;;;;27.00;54.50;;;;;;5015283;28;19925;-69
2022/06/16 08:37:40;;;;;;;;;;;27.20;53.70;;;;;;5019028;28;20004;-69
2022/06/16 08:40:06;;;;;;;;;;;27.30;53.50;;;;;;5016889;28;19979;-67
2022/06/16 08:42:44;;;;;;;;;;;27.40;53.40;;;;;;5017857;28;19913;-66
2022/06/16 08:45:26;;;;;;;;;;;27.50;53.40;;;;;;5016691;28;19957;-69
2022/06/16 08:48:01;;;;;;;;;;;27.70;51.80;;;;;;5019048;28;20277;-69
2022/06/16 08:50:26;;;;;;;;;;;27.80;52.30;;;;;;5016071;28;19913;-69
2022/06/16 08:52:57;;;;;;;;;;;27.90;51.40;;;;;;5018070;28;20359;-66
2022/06/16 08:55:42;;;;;;;;;;;27.90;51.40;;;;;;5017508;28;20548;-66
2022/06/16 08:58:20;;;;;;;;;;;28.00;50.90;;;;;;5018159;28;19987;-69
2022/06/16 09:00:47;;;;;;;;;;;28.10;51.40;;;;;;5032888;28;19918;-69
2022/06/16 09:03:21;;;;;;;;;;;28.10;50.90;;;;;;5017906;28;19914;-67
2022/06/16 09:05:51;;;;;;;;;;;28.20;50.30;;;;;;5018128;28;19975;-67
2022/06/16 09:08:23;;;;;;;;;;;28.20;50.00;;;;;;5018527;28;20002;-66
2022/06/16 09:11:03;;;;;;;;;;;28.20;49.90;;;;;;5015478;28;19921;-66
2022/06/16 09:13:44;;;;;;;;;;;28.30;50.80;;;;;;5016235;28;20284;-66
2022/06/16 09:16:12;;;;;;;;;;;28.30;50.00;;;;;;5017069;28;19921;-69
2022/06/16 09:18:59;;;;;;;;;;;28.30;48.20;;;;;;5018044;28;19921;-66
2022/06/16 09:21:31;;;;;;;;;;;28.30;48.30;;;;;;5016946;28;19924;-66
2022/06/16 09:24:00;;;;;;;;;;;28.30;47.60;;;;;;5019454;28;19920;-67
2022/06/16 09:26:28;;;;;;;;;;;28.40;48.60;;;;;;5032064;28;20404;-66
2022/06/16 09:29:04;;;;;;;;;;;28.40;46.50;;;;;;5018744;28;19919;-67
2022/06/16 09:31:35;;;;;;;;;;;28.50;45.00;;;;;;5017429;28;19920;-69
2022/06/16 09:34:05;;;;;;;;;;;28.50;45.70;;;;;;5018485;28;20289;-69
2022/06/16 09:36:34;;;;;;;;;;;28.60;46.10;;;;;;5017930;28;19925;-69
2022/06/16 09:39:04;;;;;;;;;;;28.60;46.40;;;;;;5016538;28;19959;-69
2022/06/16 09:44:28;;;;;;;;;;;28.70;44.80;;;;;;5017027;28;19929;-66
2022/06/16 09:46:56;;;;;;;;;;;28.70;44.30;;;;;;5016021;28;19921;-66
2022/06/16 09:49:24;;;;;;;;;;;28.80;42.70;;;;;;5017387;28;19921;-66
2022/06/16 09:51:52;;;;;;;;;;;28.90;43.40;;;;;;5016135;28;20045;-66
2022/06/16 09:54:22;;;;;;;;;;;28.90;43.80;;;;;;5017405;28;19921;-67
2022/06/16 09:57:06;;;;;;;;;;;28.90;43.80;;;;;;5016204;28;19956;-66
2022/06/16 09:59:41;;;;;;;;;;;28.90;44.50;;;;;;5017987;28;19917;-67
2022/06/16 10:02:24;;;;;;;;;;;29.00;45.60;;;;;;5014921;28;19920;-67
2022/06/16 10:04:50;;;;;;;;;;;29.00;43.00;;;;;;5018955;28;19917;-66
2022/06/16 10:07:25;;;;;;;;;;;29.10;42.50;;;;;;5014102;28;19918;-67
2022/06/16 10:10:02;;;;;;;;;;;29.10;43.30;;;;;;5007043;28;19922;-67
2022/06/16 10:12:27;;;;;;;;;;;29.10;41.50;;;;;;5011877;28;19924;-66
2022/06/16 10:14:53;;;;;;;;;;;29.10;40.30;;;;;;5016232;28;20297;-66
2022/06/16 10:17:21;;;;;;;;;;;29.10;38.50;;;;;;5017361;28;19920;-67
2022/06/16 10:19:47;;;;;;;;;;;29.20;38.80;;;;;;5014194;28;19917;-67
2022/06/16 10:22:14;;;;;;;;;;;29.20;39.00;;;;;;5020845;28;19924;-67
2022/06/16 10:24:58;;;;;;;;;;;29.10;38.20;;;;;;5014680;28;20288;-67
2022/06/16 10:27:26;;;;;;;;;;;29.20;39.60;;;;;;5017267;28;19917;-66
2022/06/16 10:29:59;;;;;;;;;;;29.20;40.00;;;;;;5020371;28;19986;-66
2022/06/16 10:32:40;;;;;;;;;;;29.30;38.70;;;;;;5014104;28;19921;-67
2022/06/16 10:35:07;;;;;;;;;;;29.30;38.00;;;;;;5013695;28;19923;-66
2022/06/16 10:37:32;;;;;;;;;;;29.40;39.10;;;;;;5011591;28;19921;-67
2022/06/16 10:40:00;;;;;;;;;;;29.40;38.70;;;;;;5012673;28;20215;-67
2022/06/16 10:42:28;;;;;;;;;;;29.50;38.00;;;;;;5013248;28;19925;-66
2022/06/16 10:45:15;;;;;;;;;;;29.50;37.60;;;;;;5013444;28;19917;-66
2022/06/16 10:47:49;;;;;;;;;;;29.60;38.90;;;;;;5011607;28;20012;-69
2022/06/16 10:50:18;;;;;;;;;;;29.60;40.50;;;;;;5017329;28;20335;-67
2022/06/16 10:52:47;;;;;;;;;;;29.60;40.60;;;;;;5013374;28;19917;-66
2022/06/16 10:55:15;;;;;;;;;;;29.70;39.70;;;;;;5011607;28;19976;-65
2022/06/16 10:57:46;;;;;;;;;;;29.80;39.10;;;;;;5006644;28;19917;-66
2022/06/16 11:00:22;;;;;;;;;;;29.90;39.60;;;;;;5015317;28;19999;-67
2022/06/16 11:02:59;;;;;;;;;;;29.90;37.50;;;;;;5015463;28;19924;-67
2022/06/16 11:05:26;;;;;;;;;;;30.00;39.20;;;;;;5014212;28;19928;-69
2022/06/16 11:07:52;;;;;;;;;;;30.00;40.20;;;;;;5011212;28;20408;-69
2022/06/16 11:10:17;;;;;;;;;;;30.00;39.50;;;;;;5012929;28;19913;-69
2022/06/16 11:12:46;;;;;;;;;;;30.10;39.00;;;;;;5011499;28;21969;-66
2022/06/16 11:15:14;;;;;;;;;;;30.10;38.30;;;;;;5010764;28;19920;-67
2022/06/16 11:17:41;;;;;;;;;;;30.20;40.50;;;;;;5016035;28;19971;-66
2022/06/16 11:20:10;;;;;;;;;;;30.20;40.50;;;;;;5010624;28;19924;-66
2022/06/16 11:22:39;;;;;;;;;;;30.30;40.30;;;;;;5013594;28;19921;-67
2022/06/16 11:25:05;;;;;;;;;;;30.40;39.70;;;;;;5014190;28;20381;-67
2022/06/16 11:27:41;;;;;;;;;;;30.40;39.20;;;;;;5013393;28;19918;-67
2022/06/16 11:30:25;;;;;;;;;;;30.40;38.50;;;;;;5013950;28;19917;-66
2022/06/16 11:32:51;;;;;;;;;;;30.50;40.10;;;;;;5013861;28;19924;-67
2022/06/16 11:35:16;;;;;;;;;;;30.60;39.70;;;;;;5027891;28;19916;-66
2022/06/16 11:37:51;;;;;;;;;;;30.60;39.10;;;;;;5021761;28;19939;-66
2022/06/16 11:40:39;;;;;;;;;;;30.60;38.30;;;;;;5012266;28;19914;-66
2022/06/16 11:43:11;;;;;;;;;;;30.60;39.20;;;;;;5005736;28;19914;-67
2022/06/16 11:45:40;;;;;;;;;;;30.60;37.70;;;;;;5012243;28;19917;-66
2022/06/16 11:48:24;;;;;;;;;;;30.70;38.60;;;;;;5014029;28;19914;-66
2022/06/16 11:51:07;;;;;;;;;;;30.70;39.50;;;;;;5018219;28;19917;-67
2022/06/16 11:53:44;;;;;;;;;;;30.70;37.30;;;;;;5018400;28;20384;-66
2022/06/16 11:56:28;;;;;;;;;;;30.70;38.70;;;;;;5015747;28;19969;-66
2022/06/16 11:58:54;;;;;;;;;;;30.70;39.00;;;;;;5017977;28;19948;-67
2022/06/16 12:01:29;;;;;;;;;;;30.70;39.30;;;;;;5018563;28;20381;-66
2022/06/16 12:04:01;;;;;;;;;;;30.70;39.90;;;;;;5017013;28;19921;-66
2022/06/16 12:06:42;;;;;;;;;;;30.70;38.50;;;;;;5017859;28;19948;-67
2022/06/16 12:09:10;;;;;;;;;;;30.80;38.50;;;;;;5020619;28;19925;-67
2022/06/16 12:11:38;;;;;;;;;;;30.80;38.30;;;;;;5018140;28;19921;-67
2022/06/16 12:14:16;;;;;;;;;;;30.90;37.50;;;;;;5017818;28;19917;-67
2022/06/16 12:17:00;;;;;;;;;;;30.70;38.50;;;;;;5018382;28;19921;-66
2022/06/16 12:19:58;;;;;;;;;;;30.70;39.50;;;;;;5019629;28;19913;-67
2022/06/16 12:22:29;;;;;;;;;;;30.60;38.50;;;;;;5022109;28;20440;-66
2022/06/16 12:25:10;;;;;;;;;;;30.60;37.70;;;;;;5017201;28;19921;-66
2022/06/16 12:27:40;;;;;;;;;;;30.60;38.30;;;;;;5017954;28;19968;-67
2022/06/16 12:30:14;;;;;;;;;;;30.60;37.50;;;;;;5020011;28;19924;-66
2022/06/16 12:32:52;;;;;;;;;;;30.50;38.30;;;;;;5020394;28;19924;-67
2022/06/16 12:35:30;;;;;;;;;;;30.50;37.60;;;;;;5020285;28;19917;-67
2022/06/16 12:37:59;;;;;;;;;;;30.30;33.70;;;;;;5024647;28;20442;-67
2022/06/16 12:40:30;;;;;;;;;;;30.30;35.10;;;;;;5020624;28;20372;-68
2022/06/16 12:43:02;;;;;;;;;;;30.30;37.10;;;;;;5020692;28;19971;-66
2022/06/16 12:45:33;;;;;;;;;;;30.30;34.00;;;;;;5020176;28;19917;-67
2022/06/16 12:48:01;;;;;;;;;;;30.30;36.30;;;;;;5016383;28;20216;-67
2022/06/16 12:50:29;;;;;;;;;;;30.30;32.50;;;;;;5019246;28;19913;-67
2022/06/16 12:52:59;;;;;;;;;;;30.30;35.50;;;;;;5017762;28;20241;-68
2022/06/16 12:55:27;;;;;;;;;;;30.40;31.40;;;;;;5015351;28;19964;-67
2022/06/16 12:57:55;;;;;;;;;;;30.40;33.70;;;;;;5016815;28;20130;-67
2022/06/16 13:00:23;;;;;;;;;;;30.40;33.60;;;;;;5016535;28;20016;-67
2022/06/16 13:03:08;;;;;;;;;;;30.50;33.30;;;;;;5014513;28;20368;-67
2022/06/16 13:05:34;;;;;;;;;;;30.50;35.30;;;;;;5017243;28;19952;-68
2022/06/16 13:08:00;;;;;;;;;;;30.50;31.90;;;;;;5014901;28;20440;-68
2022/06/16 13:10:26;;;;;;;;;;;30.50;31.50;;;;;;5014451;28;19924;-67
2022/06/16 13:12:54;;;;;;;;;;;30.60;33.40;;;;;;5013592;28;21083;-68
2022/06/16 13:15:33;;;;;;;;;;;30.60;33.20;;;;;;5010313;28;19921;-67
2022/06/16 13:18:07;;;;;;;;;;;30.60;34.80;;;;;;5020685;28;19920;-68
2022/06/16 13:20:33;;;;;;;;;;;30.70;33.40;;;;;;5019233;28;19913;-69
2022/06/16 13:22:58;;;;;;;;;;;30.70;33.20;;;;;;5016773;28;19917;-68
2022/06/16 13:25:37;;;;;;;;;;;30.80;34.50;;;;;;5016447;28;19921;-67
2022/06/16 13:28:05;;;;;;;;;;;30.80;34.00;;;;;;5016794;28;19913;-67
2022/06/16 13:30:30;;;;;;;;;;;30.80;34.10;;;;;;5013838;28;19975;-68
2022/06/16 13:33:05;;;;;;;;;;;30.80;32.10;;;;;;5015218;28;19913;-68
2022/06/16 13:35:45;;;;;;;;;;;30.80;33.40;;;;;;5017677;28;19964;-68
2022/06/16 13:38:10;;;;;;;;;;;30.90;33.80;;;;;;5016795;28;19916;-68
2022/06/16 13:40:43;;;;;;;;;;;30.80;34.30;;;;;;5033468;28;20020;-68
2022/06/16 13:43:08;;;;;;;;;;;30.80;34.60;;;;;;5011164;28;19924;-68
2022/06/16 13:45:34;;;;;;;;;;;30.80;35.20;;;;;;5020578;28;19913;-67
2022/06/16 13:48:05;;;;;;;;;;;30.80;35.40;;;;;;5017517;28;20426;-68
2022/06/16 13:50:43;;;;;;;;;;;30.80;36.10;;;;;;5016150;28;19913;-67
2022/06/16 13:53:09;;;;;;;;;;;30.80;35.80;;;;;;5015654;28;19917;-67
2022/06/16 13:55:36;;;;;;;;;;;30.80;37.50;;;;;;5018282;28;19932;-67
2022/06/16 13:58:10;;;;;;;;;;;30.70;37.60;;;;;;5017225;28;19921;-67
2022/06/16 14:00:37;;;;;;;;;;;30.70;37.10;;;;;;5014801;28;20452;-68
2022/06/16 14:03:04;;;;;;;;;;;30.70;36.20;;;;;;5016810;28;20488;-68
2022/06/16 14:05:33;;;;;;;;;;;30.80;36.70;;;;;;5019015;28;19936;-68
2022/06/16 14:08:00;;;;;;;;;;;30.70;36.80;;;;;;5017470;28;19913;-68
2022/06/16 14:10:34;;;;;;;;;;;30.70;37.70;;;;;;5019470;28;20047;-67
2022/06/16 14:13:00;;;;;;;;;;;30.70;37.10;;;;;;5016771;28;19913;-67
2022/06/16 14:15:44;;;;;;;;;;;30.70;37.00;;;;;;5015187;28;19959;-68
2022/06/16 14:18:13;;;;;;;;;;;30.70;37.20;;;;;;5016713;28;20348;-68
2022/06/16 14:20:41;;;;;;;;;;;30.70;38.00;;;;;;5015362;28;19933;-68
2022/06/16 14:23:11;;;;;;;;;;;30.70;37.80;;;;;;5017904;28;19945;-67
2022/06/16 14:25:43;;;;;;;;;;;30.70;38.00;;;;;;5017372;28;19913;-68
2022/06/16 14:28:12;;;;;;;;;;;30.70;38.10;;;;;;5018016;28;20152;-68
2022/06/16 14:30:42;;;;;;;;;;;30.70;37.10;;;;;;5017194;28;20269;-67
2022/06/16 14:33:10;;;;;;;;;;;30.70;36.80;;;;;;5017893;28;19917;-68
2022/06/16 14:35:42;;;;;;;;;;;30.70;37.40;;;;;;5017681;28;20003;-68
2022/06/16 14:38:25;;;;;;;;;;;30.70;37.10;;;;;;5017850;28;20387;-67
2022/06/16 14:40:57;;;;;;;;;;;30.70;37.90;;;;;;5015826;28;20381;-67
2022/06/16 14:43:37;;;;;;;;;;;30.70;36.50;;;;;;5018407;28;19917;-67
2022/06/16 14:46:26;;;;;;;;;;;30.80;37.70;;;;;;5018842;28;20340;-67
2022/06/16 14:48:57;;;;;;;;;;;30.80;38.00;;;;;;5019418;28;19917;-68